Startpagina
METAR-TAF:

METAR-TAF

Vliegvelden :

Luchthaven Arad

Arad, Roemenië

breedte: 46-12N, lengte: 021-24E, hoogte: 117 m

Actueel weer

Dit bericht is 11 minuten geleden gemaakt, om 11:30 UTC
Wind 8 kt uit het noorden, variërend tussen het noordnoordwesten en het noordoosten
Temperatuur 23°C
Vochtigheid 47%
Druk 1018 hPa
Zicht 10 km of meer
Weinig wolken op 4200 ft

METAR: LRAR 201130Z 01008KT 340V050 9999 FEW042 23/11 Q1018

Tijdstip: 14:41 (11:41 UTC)

Verwachting

Dit bericht is 41 minuten geleden gemaakt, om 11:00 UTC
Verwachting geldig van 20 om 12 UTC tot 20 om 21 UTC
Wind 8 kt uit het noordnoordoosten
Zicht 10 km of meer
geen wolken onder 1500 m en geen cumulonimbus

TAF: LRAR 201100Z 2012/2021 03008KT CAVOK

Waarnemingen en weersverwachtingen van meer dan 4000 vliegvelden (METAR en TAF).

De beschikbare stations zijn de gele en rode punten op de kaart.

Ga met uw muis naar het station om de naam te zien.

Klik dan om waarnemingen en weersverwachtingen te zien.

kaart wijzigen: klik op de groene knoppen met een zwart kruis om in te zoomen, op de groene knop met een streepje om uit te zoomen of op de groene pijlen voor aangrenzende kaarten.


METAR-TAF: